Time;durP1;ratioP1;P1;durP2;ratioP2;P2;SDS_P1;SDS_P2;PMS_P1;PMS_P2;Temp;Humidity;BMP_temperature;BMP_pressure;BME280_temperature;BME280_humidity;BME280_pressure;Samples;Min_cycle;Max_cycle;Signal;HPM_P1;HPM_P2
2023/06/23 00:00:28;;;;;;;;;22.20;20.00;;;;;27.22;41.86;99299.97;4981253;28;8880;-89
2023/06/23 00:03:19;;;;;;;;;22.60;21.60;;;;;27.23;41.87;99304.38;4982656;28;8938;-87
2023/06/23 00:05:48;;;;;;;;;24.50;24.50;;;;;27.14;41.89;99294.47;4981228;28;8861;-86
2023/06/23 00:08:17;;;;;;;;;24.25;23.50;;;;;27.03;42.45;99292.78;4999209;28;9050;-86
2023/06/23 00:10:48;;;;;;;;;24.25;23.50;;;;;26.93;42.70;99289.19;5007224;28;8891;-88
2023/06/23 00:13:20;;;;;;;;;27.00;27.00;;;;;26.95;42.90;99276.41;4999009;28;8875;-88
2023/06/23 00:15:52;;;;;;;;;27.00;25.50;;;;;26.92;42.71;99282.97;5001083;28;9667;-87
2023/06/23 00:18:24;;;;;;;;;24.50;23.25;;;;;26.94;43.18;99280.13;5017258;28;8874;-87
2023/06/23 00:20:54;;;;;;;;;28.25;25.25;;;;;26.95;42.76;99279.13;5016983;28;8875;-87
2023/06/23 00:23:24;;;;;;;;;26.00;24.75;;;;;26.93;43.17;99276.59;5013872;28;8878;-85
2023/06/23 00:25:53;;;;;;;;;27.25;27.25;;;;;26.92;42.92;99272.16;5014194;28;8855;-87
2023/06/23 00:28:23;;;;;;;;;22.00;21.25;;;;;26.98;42.88;99270.75;4996905;28;8854;-87
2023/06/23 00:30:52;;;;;;;;;24.20;24.20;;;;;26.84;43.30;99274.75;5017831;28;8900;-89
2023/06/23 00:33:24;;;;;;;;;24.00;23.25;;;;;26.68;43.80;99261.84;4999185;28;8980;-87
2023/06/23 00:35:53;;;;;;;;;26.50;24.75;;;;;26.38;44.63;99262.81;5022662;28;8956;-87
2023/06/23 00:38:25;;;;;;;;;27.75;25.75;;;;;26.18;45.19;99259.25;4994943;28;8829;-87
2023/06/23 00:40:54;;;;;;;;;26.20;23.60;;;;;26.18;45.32;99259.25;5008832;28;8857;-87
2023/06/23 00:43:24;;;;;;;;;24.50;24.50;;;;;26.38;44.77;99258.28;4996826;28;9672;-87
2023/06/23 00:45:53;;;;;;;;;25.80;24.40;;;;;26.51;44.29;99255.31;4990840;28;8934;-88
2023/06/23 00:48:29;;;;;;;;;26.20;25.20;;;;;26.64;44.01;99246.94;4999402;28;8843;-88
2023/06/23 00:51:14;;;;;;;;;25.00;24.00;;;;;26.70;43.57;99251.75;4982948;28;9000;-85
2023/06/23 00:53:53;;;;;;;;;26.60;25.00;;;;;26.73;43.50;99250.63;4962041;28;8868;-87
2023/06/23 00:56:26;;;;;;;;;21.20;19.20;;;;;26.76;43.82;99251.19;4960348;28;8895;-88
2023/06/23 00:59:02;;;;;;;;;24.75;24.75;;;;;26.79;43.41;99252.75;4941762;28;8857;-86
2023/06/23 01:01:32;;;;;;;;;24.00;24.00;;;;;26.80;43.29;99255.31;4975423;28;8899;-88
2023/06/23 01:04:05;;;;;;;;;25.00;25.00;;;;;26.83;43.05;99246.06;4943269;28;8998;-88
2023/06/23 01:06:46;;;;;;;;;26.50;25.50;;;;;26.77;43.33;99239.41;4876597;29;8863;-87
2023/06/23 01:09:26;;;;;;;;;23.20;22.80;;;;;26.88;43.14;99237.56;4915623;29;9043;-88
2023/06/23 01:12:02;;;;;;;;;27.50;26.00;;;;;26.80;43.50;99225.66;4903595;29;8835;-86
2023/06/23 01:14:39;;;;;;;;;28.25;27.25;;;;;26.80;43.60;99220.25;4924832;29;8879;-87
2023/06/23 01:17:18;;;;;;;;;27.50;24.50;;;;;26.85;43.34;99211.72;4883926;29;8875;-90
2023/06/23 01:20:15;;;;;;;;;22.00;21.00;;;;;26.89;42.97;99204.19;4870686;29;8887;-86
2023/06/23 01:22:55;;;;;;;;;27.50;24.50;;;;;26.75;43.29;99195.56;4907817;29;9618;-88
2023/06/23 01:25:38;;;;;;;;;25.50;25.00;;;;;26.73;43.34;99197.56;4934231;29;8890;-85
2023/06/23 01:28:31;;;;;;;;;23.00;21.40;;;;;26.70;43.57;99200.53;4957277;28;8856;-88
2023/06/23 01:31:07;;;;;;;;;23.00;22.50;;;;;26.61;43.79;99204.97;4937315;29;8894;-88
2023/06/23 01:33:43;;;;;;;;;22.00;21.50;;;;;26.62;43.63;99211.19;4944853;29;8878;-88
2023/06/23 01:36:17;;;;;;;;;23.00;22.75;;;;;26.63;43.39;99215.59;4943581;29;8859;-88
2023/06/23 01:38:52;;;;;;;;;22.80;21.00;;;;;26.69;43.46;99209.63;4979440;28;8900;-90
2023/06/23 01:41:25;;;;;;;;;24.80;23.00;;;;;26.67;43.72;99208.91;5007731;28;8860;-89
2023/06/23 01:43:57;;;;;;;;;23.60;23.00;;;;;26.71;43.45;99215.72;5030644;28;8853;-88
2023/06/23 01:46:34;;;;;;;;;29.00;27.25;;;;;26.62;44.05;99221.97;4999012;28;8950;-90
2023/06/23 01:49:11;;;;;;;;;27.50;26.50;;;;;26.52;44.46;99216.59;5031770;28;8891;-89
2023/06/23 01:51:46;;;;;;;;;27.00;25.25;;;;;26.39;44.93;99219.53;5049671;28;8856;-86
2023/06/23 01:54:19;;;;;;;;;22.75;22.00;;;;;26.28;44.65;99223.22;5046972;28;8853;-88
2023/06/23 01:56:51;;;;;;;;;35.00;30.00;;;;;26.36;44.79;99221.66;5015994;28;8902;-88
2023/06/23 01:59:23;;;;;;;;;26.25;24.50;;;;;26.38;44.46;99220.56;5046602;28;8845;-88
2023/06/23 02:01:56;;;;;;;;;24.50;24.00;;;;;26.47;44.29;99213.47;5017637;28;8982;-90
2023/06/23 02:04:27;;;;;;;;;26.00;25.50;;;;;26.47;44.56;99219.75;5001295;28;8868;-89
2023/06/23 02:06:59;;;;;;;;;26.50;26.00;;;;;26.43;44.84;99218.25;5001852;28;8845;-89
2023/06/23 02:09:30;;;;;;;;;28.00;27.00;;;;;26.42;44.43;99227.34;5001870;28;8844;-88
2023/06/23 02:12:06;;;;;;;;;24.00;21.50;;;;;26.38;45.28;99220.56;5002094;28;9753;-88
2023/06/23 02:14:38;;;;;;;;;27.50;26.75;;;;;26.35;45.16;99217.28;5016514;28;8982;-88
2023/06/23 02:17:11;;;;;;;;;25.00;24.00;;;;;26.32;45.29;99226.50;4984617;28;8845;-89
2023/06/23 02:19:42;;;;;;;;;29.75;27.75;;;;;26.28;45.53;99233.16;4999866;28;9132;-90
2023/06/23 02:22:17;;;;;;;;;25.20;25.20;;;;;26.29;45.37;99229.50;4989144;28;9582;-89
2023/06/23 02:24:48;;;;;;;;;26.75;25.75;;;;;26.28;45.36;99230.47;5011254;28;8861;-86
2023/06/23 02:27:19;;;;;;;;;23.25;22.50;;;;;26.29;45.40;99234.88;5035225;28;8981;-91
2023/06/23 02:29:51;;;;;;;;;25.25;24.50;;;;;26.33;45.50;99244.38;5041605;28;8857;-88
2023/06/23 02:32:25;;;;;;;;;24.50;24.50;;;;;26.29;45.60;99233.03;5018195;28;8840;-89
2023/06/23 02:34:55;;;;;;;;;23.75;23.00;;;;;26.29;45.61;99235.72;5018813;28;8958;-87
2023/06/23 02:37:25;;;;;;;;;27.50;26.25;;;;;26.32;45.43;99231.88;5026282;28;9044;-89
2023/06/23 02:39:58;;;;;;;;;21.00;20.75;;;;;26.25;44.85;99233.47;5060993;28;8994;-87
2023/06/23 02:42:34;;;;;;;;;27.50;27.50;;;;;26.20;44.89;99230.31;5041455;28;9590;-88
2023/06/23 02:45:09;;;;;;;;;27.75;27.00;;;;;26.05;44.61;99228.03;5038992;28;8949;-90
2023/06/23 02:47:44;;;;;;;;;26.00;25.00;;;;;25.88;45.86;99228.69;5020189;28;8869;-88
2023/06/23 02:50:16;;;;;;;;;28.20;24.80;;;;;25.82;45.87;99226.56;5018325;28;8874;-91
2023/06/23 02:52:51;;;;;;;;;27.75;26.50;;;;;25.78;45.84;99234.06;5019325;28;8861;-88
2023/06/23 02:55:23;;;;;;;;;25.20;25.00;;;;;25.78;45.51;99228.66;5034280;28;8880;-87
2023/06/23 02:57:56;;;;;;;;;25.40;24.40;;;;;25.75;45.88;99238.84;5036190;28;8884;-91
2023/06/23 03:00:29;;;;;;;;;23.50;23.50;;;;;25.61;46.99;99243.63;5021869;28;8910;-87
2023/06/23 03:03:03;;;;;;;;;24.25;24.25;;;;;25.50;47.50;99247.28;5061652;28;8908;-88
2023/06/23 03:05:32;;;;;;;;;25.00;24.75;;;;;25.40;47.44;99243.72;5029085;28;9008;-87
2023/06/23 03:08:02;;;;;;;;;24.75;24.75;;;;;25.41;48.05;99249.94;5039034;28;9737;-90
2023/06/23 03:10:31;;;;;;;;;26.50;26.25;;;;;25.32;48.05;99251.56;5038555;28;8841;-88
2023/06/23 03:13:01;;;;;;;;;24.00;23.20;;;;;25.31;48.50;99250.69;5022884;28;9034;-86
2023/06/23 03:15:31;;;;;;;;;26.50;26.50;;;;;25.31;48.20;99249.84;5041259;28;8868;-86
2023/06/23 03:18:08;;;;;;;;;30.50;26.00;;;;;25.42;48.09;99254.34;5041656;28;8852;-88
2023/06/23 03:20:45;;;;;;;;;45.00;37.25;;;;;25.45;47.95;99254.06;5038012;28;8840;-90
2023/06/23 03:23:17;;;;;;;;;39.50;33.75;;;;;25.43;47.87;99254.19;5019277;28;8848;-91
2023/06/23 03:25:50;;;;;;;;;32.00;29.25;;;;;25.53;47.33;99259.63;4997885;28;8862;-90
2023/06/23 03:28:27;;;;;;;;;24.00;24.00;;;;;25.57;47.25;99258.38;5015606;28;8878;-89
2023/06/23 03:31:01;;;;;;;;;27.25;25.25;;;;;25.66;47.20;99259.38;4963729;28;8944;-89
2023/06/23 03:33:35;;;;;;;;;39.75;35.25;;;;;25.78;46.84;99254.75;4947854;28;8881;-91
2023/06/23 03:36:11;;;;;;;;;29.00;28.00;;;;;25.78;46.25;99241.28;4979875;28;8996;-86
2023/06/23 03:38:45;;;;;;;;;28.75;25.50;;;;;25.82;46.40;99246.25;4967856;28;8982;-87
2023/06/23 03:41:15;;;;;;;;;25.75;25.75;;;;;25.73;46.48;99241.69;4954478;28;8966;-88
2023/06/23 03:43:52;;;;;;;;;24.75;24.25;;;;;25.83;46.38;99234.50;4958406;28;8911;-89
2023/06/23 03:46:26;;;;;;;;;25.25;25.00;;;;;25.85;46.27;99239.72;4945778;28;8887;-87
2023/06/23 03:49:03;;;;;;;;;48.75;40.50;;;;;25.90;45.79;99243.75;4955169;28;8859;-86
2023/06/23 03:51:36;;;;;;;;;30.25;29.00;;;;;25.85;46.70;99245.09;4939936;28;8891;-87
2023/06/23 03:54:08;;;;;;;;;28.00;26.25;;;;;25.83;46.36;99242.59;4956141;28;8910;-87
2023/06/23 03:56:39;;;;;;;;;30.75;29.50;;;;;25.87;46.56;99248.50;4938517;29;8886;-86
2023/06/23 03:59:12;;;;;;;;;31.50;28.75;;;;;25.85;47.19;99245.09;4910061;29;8970;-84
2023/06/23 04:01:43;;;;;;;;;26.00;25.00;;;;;25.86;46.65;99244.97;4920456;29;8879;-87
2023/06/23 04:04:18;;;;;;;;;28.25;26.50;;;;;25.98;46.96;99243.03;4871915;29;8886;-85
2023/06/23 04:06:49;;;;;;;;;26.00;24.00;;;;;25.93;47.03;99237.25;4915403;29;8899;-86
2023/06/23 04:09:21;;;;;;;;;27.75;26.25;;;;;25.96;46.73;99230.72;4904981;29;9005;-83
2023/06/23 04:11:53;;;;;;;;;28.25;27.75;;;;;26.03;46.80;99227.31;4919328;29;9245;-86
2023/06/23 04:14:25;;;;;;;;;31.00;29.50;;;;;26.03;46.38;99227.31;4923290;29;8875;-86
2023/06/23 04:16:56;;;;;;;;;23.75;23.00;;;;;25.98;46.21;99232.28;4932024;29;8865;-85
2023/06/23 04:19:30;;;;;;;;;26.75;26.00;;;;;26.04;46.72;99228.16;4914509;29;9039;-87
2023/06/23 04:22:01;;;;;;;;;48.00;39.75;;;;;25.98;46.35;99234.13;4911454;29;9468;-88
2023/06/23 04:24:33;;;;;;;;;45.75;38.75;;;;;25.99;46.69;99235.84;4927510;29;9735;-88
2023/06/23 04:27:05;;;;;;;;;37.75;32.50;;;;;26.04;46.27;99238.94;4959852;28;8870;-87
2023/06/23 04:29:37;;;;;;;;;27.25;27.25;;;;;26.13;46.43;99242.66;4972026;28;8863;-89
2023/06/23 04:32:10;;;;;;;;;27.00;27.00;;;;;26.21;45.94;99237.41;4987115;28;8866;-86
2023/06/23 04:34:42;;;;;;;;;28.75;27.75;;;;;26.33;45.58;99244.38;4982325;28;8912;-85
2023/06/23 04:37:38;;;;;;;;;29.25;27.25;;;;;26.40;45.74;99242.81;4949634;28;9676;-87
2023/06/23 04:40:12;;;;;;;;;28.25;28.25;;;;;26.46;45.60;99236.88;4955883;28;9079;-86
2023/06/23 04:42:46;;;;;;;;;28.00;25.00;;;;;26.47;44.88;99238.59;4972260;28;8963;-86
2023/06/23 04:45:20;;;;;;;;;24.00;23.00;;;;;26.50;44.52;99240.16;4972390;28;8872;-86
2023/06/23 04:47:54;;;;;;;;;27.00;27.00;;;;;26.73;44.21;99231.75;4987549;28;8848;-86
2023/06/23 04:50:30;;;;;;;;;29.50;28.00;;;;;26.84;43.86;99235.13;4970750;28;8860;-85
2023/06/23 04:53:05;;;;;;;;;26.00;24.50;;;;;26.99;43.79;99234.69;4938598;28;8857;-87
2023/06/23 04:55:37;;;;;;;;;24.25;24.25;;;;;27.00;43.52;99234.53;4938966;28;8868;-87
2023/06/23 04:58:07;;;;;;;;;27.00;24.00;;;;;27.19;44.18;99239.06;4971889;28;9718;-84
2023/06/23 05:00:39;;;;;;;;;29.00;25.25;;;;;27.11;43.95;99232.69;4940643;28;8853;-86
2023/06/23 05:03:09;;;;;;;;;25.50;24.50;;;;;27.31;44.17;99228.94;4916834;28;8875;-84
2023/06/23 05:05:43;;;;;;;;;28.00;28.00;;;;;27.53;44.32;99233.09;4964913;28;9046;-87
2023/06/23 05:08:14;;;;;;;;;28.75;28.75;;;;;27.64;44.07;99229.38;4937821;28;8987;-85
2023/06/23 05:10:47;;;;;;;;;18.25;17.75;;;;;27.67;43.18;99231.78;4954828;28;8872;-86
2023/06/23 05:13:19;;;;;;;;;29.75;28.00;;;;;27.63;43.21;99231.25;4937684;28;8853;-86
2023/06/23 05:15:50;;;;;;;;;28.00;28.00;;;;;27.74;43.20;99229.31;4994567;28;8975;-86
2023/06/23 05:18:20;;;;;;;;;30.00;26.75;;;;;27.78;43.16;99231.59;5011877;28;8854;-84
2023/06/23 05:20:54;;;;;;;;;29.50;28.25;;;;;27.84;42.52;99222.03;5011528;28;8885;-85
2023/06/23 05:23:25;;;;;;;;;31.50;28.50;;;;;27.71;42.81;99219.69;5008563;28;8854;-87
2023/06/23 05:25:58;;;;;;;;;29.75;28.75;;;;;27.67;43.19;99218.28;5010564;28;8870;-87
2023/06/23 05:28:31;;;;;;;;;29.75;27.75;;;;;27.68;42.47;99214.56;5008516;28;8865;-86
2023/06/23 05:31:03;;;;;;;;;26.75;26.50;;;;;27.70;42.92;99206.31;4987872;28;8860;-87
2023/06/23 05:33:37;;;;;;;;;30.75;28.00;;;;;27.66;42.66;99204.94;4988049;28;8849;-84
2023/06/23 05:36:10;;;;;;;;;27.25;25.75;;;;;27.64;42.22;99207.78;4987800;28;8988;-85
2023/06/23 05:38:42;;;;;;;;;29.50;27.00;;;;;27.68;42.72;99200.22;4940086;28;8857;-84
2023/06/23 05:41:12;;;;;;;;;26.50;25.50;;;;;27.74;42.81;99215.81;5004764;28;8864;-85
2023/06/23 05:43:41;;;;;;;;;30.75;28.75;;;;;27.77;42.96;99219.06;4972218;28;9031;-84
2023/06/23 05:46:14;;;;;;;;;27.25;26.50;;;;;27.85;42.83;99215.59;4968845;28;9639;-88
2023/06/23 05:48:48;;;;;;;;;25.75;25.75;;;;;27.74;42.81;99215.81;4966059;28;8878;-86
2023/06/23 05:51:25;;;;;;;;;25.25;25.25;;;;;27.85;43.09;99210.19;4949976;28;9015;-87
2023/06/23 05:53:57;;;;;;;;;28.25;27.75;;;;;27.77;43.20;99213.66;4966694;28;8893;-85
2023/06/23 05:56:32;;;;;;;;;28.00;26.00;;;;;27.92;42.97;99219.41;4968575;28;8897;-84
2023/06/23 05:59:04;;;;;;;;;29.00;28.75;;;;;27.99;42.85;99223.19;4989258;28;8867;-84
2023/06/23 06:01:40;;;;;;;;;30.50;28.75;;;;;28.09;43.00;99223.13;4976320;28;8854;-85
2023/06/23 06:04:13;;;;;;;;;30.25;29.25;;;;;28.17;42.48;99227.78;4946921;28;8859;-83
2023/06/23 06:06:54;;;;;;;;;32.75;28.75;;;;;28.40;42.16;99225.47;4972875;28;9057;-83
2023/06/23 06:09:30;;;;;;;;;30.00;28.75;;;;;28.54;41.64;99216.81;4950029;28;8873;-86
2023/06/23 06:12:05;;;;;;;;;28.50;28.50;;;;;28.55;41.67;99225.78;4948491;28;8869;-84
2023/06/23 06:14:35;;;;;;;;;29.25;26.25;;;;;28.70;41.55;99226.09;4948630;28;8886;-87
2023/06/23 06:17:08;;;;;;;;;27.25;26.25;;;;;28.90;40.87;99226.75;4948619;28;8881;-87
2023/06/23 06:19:41;;;;;;;;;23.75;23.50;;;;;28.83;40.91;99223.81;4949183;28;8957;-85
2023/06/23 06:22:15;;;;;;;;;22.75;21.75;;;;;28.83;40.76;99221.13;4950297;28;8892;-84
2023/06/23 06:24:46;;;;;;;;;24.75;24.00;;;;;28.93;40.96;99235.41;4994520;28;8865;-85
2023/06/23 06:27:17;;;;;;;;;26.25;25.25;;;;;29.01;40.91;99229.19;4990711;28;9611;-88
2023/06/23 06:29:48;;;;;;;;;28.00;27.75;;;;;29.07;40.56;99233.97;5008118;28;8869;-86
2023/06/23 06:32:20;;;;;;;;;26.00;23.75;;;;;29.21;40.51;99229.00;5008656;28;8903;-86
2023/06/23 06:34:51;;;;;;;;;28.00;27.25;;;;;29.13;40.12;99233.31;4941203;28;8869;-86
2023/06/23 06:37:25;;;;;;;;;27.00;26.75;;;;;29.26;40.30;99234.78;5022752;28;8861;-84
2023/06/23 06:39:56;;;;;;;;;32.25;29.50;;;;;29.42;39.79;99240.25;5020890;28;8868;-85
2023/06/23 06:42:25;;;;;;;;;27.00;25.25;;;;;29.57;39.05;99229.66;5027388;28;8877;-84
2023/06/23 06:44:54;;;;;;;;;27.25;27.25;;;;;29.49;39.26;99227.78;4995166;28;9681;-85
2023/06/23 06:47:25;;;;;;;;;26.50;23.50;;;;;29.57;39.27;99226.97;5007192;28;8869;-85
2023/06/23 06:49:57;;;;;;;;;25.50;24.25;;;;;29.73;38.64;99224.34;4993350;28;9072;-84
2023/06/23 06:52:30;;;;;;;;;21.00;21.00;;;;;29.80;38.84;99216.41;5007085;28;8935;-85
2023/06/23 06:55:18;;;;;;;;;24.00;23.50;;;;;29.82;39.10;99208.09;5009418;28;8888;-84
2023/06/23 06:57:48;;;;;;;;;23.00;23.00;;;;;29.78;38.72;99213.00;4957041;28;8966;-85
2023/06/23 07:00:19;;;;;;;;;23.25;22.75;;;;;29.85;39.05;99207.78;4994810;28;8863;-85
2023/06/23 07:02:49;;;;;;;;;28.25;26.00;;;;;29.74;39.07;99211.66;5009812;28;8926;-84
2023/06/23 07:05:20;;;;;;;;;25.00;24.00;;;;;29.82;38.82;99218.94;4987022;28;9747;-85
2023/06/23 07:07:50;;;;;;;;;25.00;24.75;;;;;29.78;39.03;99215.72;4972976;28;9029;-86
2023/06/23 07:10:19;;;;;;;;;20.75;20.75;;;;;29.80;38.97;99215.56;5008046;28;8954;-83
2023/06/23 07:12:49;;;;;;;;;25.50;24.00;;;;;29.88;39.06;99207.47;5007987;28;8879;-86
2023/06/23 07:15:18;;;;;;;;;26.00;24.00;;;;;29.95;39.00;99198.50;4948977;28;8859;-84
2023/06/23 07:17:47;;;;;;;;;23.75;22.50;;;;;30.08;38.33;99203.41;4917437;29;8863;-84
2023/06/23 07:20:16;;;;;;;;;25.75;25.00;;;;;30.17;38.80;99207.00;4965534;28;9561;-85
2023/06/23 07:22:46;;;;;;;;;25.25;25.25;;;;;30.24;38.20;99202.66;4965141;28;8875;-86
2023/06/23 07:25:17;;;;;;;;;27.00;27.00;;;;;30.34;38.00;99199.75;4933069;29;8884;-86
2023/06/23 07:28:06;;;;;;;;;28.00;26.50;;;;;30.49;38.04;99200.78;4929489;29;8992;-83
2023/06/23 07:30:37;;;;;;;;;24.25;23.25;;;;;30.66;37.76;99195.34;4932417;28;8875;-85
2023/06/23 07:33:07;;;;;;;;;24.75;24.75;;;;;30.76;37.37;99206.03;4948216;28;8891;-85
2023/06/23 07:35:37;;;;;;;;;24.75;23.25;;;;;30.86;37.09;99207.56;4946030;28;8871;-86
2023/06/23 07:38:08;;;;;;;;;23.50;22.25;;;;;30.97;37.34;99203.63;4932689;29;8952;-85
2023/06/23 07:40:38;;;;;;;;;26.50;25.50;;;;;31.19;36.90;99212.09;4917004;29;8881;-84
2023/06/23 07:43:08;;;;;;;;;25.25;23.00;;;;;31.36;36.23;99199.31;4933121;29;8934;-84
2023/06/23 07:45:37;;;;;;;;;23.50;22.25;;;;;31.40;35.64;99196.06;4919305;29;8897;-85
2023/06/23 07:48:06;;;;;;;;;27.50;22.00;;;;;31.42;35.58;99201.31;4906327;29;8906;-83
2023/06/23 07:50:36;;;;;;;;;22.50;22.50;;;;;31.35;35.12;99206.59;4932443;29;8871;-84
2023/06/23 07:53:06;;;;;;;;;22.00;21.75;;;;;31.35;35.42;99203.88;4946566;28;8843;-85
2023/06/23 07:55:35;;;;;;;;;23.25;21.25;;;;;31.25;35.48;99209.50;4975677;28;8874;-84
2023/06/23 07:58:06;;;;;;;;;25.25;24.25;;;;;31.15;35.01;99208.00;4976856;28;8842;-84
2023/06/23 08:00:34;;;;;;;;;28.00;27.75;;;;;31.29;35.50;99210.00;4997355;28;8951;-85
2023/06/23 08:03:04;;;;;;;;;21.25;21.00;;;;;31.32;35.39;99217.00;5008768;28;8846;-84
2023/06/23 08:05:34;;;;;;;;;24.00;23.50;;;;;31.32;35.56;99212.41;5008955;28;8940;-85
2023/06/23 08:08:04;;;;;;;;;23.75;21.50;;;;;31.53;35.50;99224.53;5008692;28;8875;-84
2023/06/23 08:10:34;;;;;;;;;22.25;22.25;;;;;31.51;34.75;99227.44;5010123;28;8866;-84
2023/06/23 08:13:03;;;;;;;;;21.75;19.25;;;;;31.59;35.02;99223.81;4993355;28;8861;-84
2023/06/23 08:15:33;;;;;;;;;21.25;20.50;;;;;31.79;34.64;99219.69;5016635;28;8881;-86
2023/06/23 08:18:05;;;;;;;;;20.75;20.00;;;;;31.67;34.56;99221.97;4994105;28;9037;-86
2023/06/23 08:20:34;;;;;;;;;20.50;20.50;;;;;31.79;34.34;99222.41;4992124;28;8856;-85
2023/06/23 08:23:03;;;;;;;;;23.25;23.25;;;;;31.84;34.65;99216.41;4993114;28;9607;-84
2023/06/23 08:25:32;;;;;;;;;22.00;21.50;;;;;31.90;34.60;99217.56;4992150;28;8983;-83
2023/06/23 08:28:23;;;;;;;;;21.25;19.50;;;;;32.01;34.02;99218.00;4991536;28;8966;-85
2023/06/23 08:30:53;;;;;;;;;25.50;25.50;;;;;31.80;34.54;99215.94;4970460;28;8897;-84
2023/06/23 08:33:23;;;;;;;;;25.75;25.00;;;;;31.97;34.23;99219.41;4974477;28;8890;-85
2023/06/23 08:35:52;;;;;;;;;23.50;23.50;;;;;31.96;34.17;99215.00;4973136;28;8862;-86
2023/06/23 08:38:23;;;;;;;;;25.50;25.00;;;;;32.16;33.92;99218.09;4970211;28;8973;-86
2023/06/23 08:40:53;;;;;;;;;27.25;25.25;;;;;32.15;34.29;99211.00;4971441;28;8863;-83
2023/06/23 08:43:26;;;;;;;;;25.75;23.75;;;;;32.14;34.40;99217.44;4970358;28;8902;-84
2023/06/23 08:45:59;;;;;;;;;25.75;23.00;;;;;32.25;34.56;99208.88;4941248;28;8888;-83
2023/06/23 08:48:31;;;;;;;;;25.25;24.50;;;;;32.34;34.06;99214.25;4979119;28;9096;-83
2023/06/23 08:51:04;;;;;;;;;26.25;26.25;;;;;32.35;34.04;99219.50;4953898;28;8869;-84
2023/06/23 08:53:36;;;;;;;;;24.25;24.00;;;;;32.50;33.75;99225.00;4950143;28;8866;-84
2023/06/23 08:56:06;;;;;;;;;22.25;19.00;;;;;32.40;33.75;99227.13;4934095;28;8960;-85
2023/06/23 08:58:36;;;;;;;;;22.00;21.00;;;;;32.42;33.40;99230.50;4963489;28;9635;-83
2023/06/23 09:01:07;;;;;;;;;24.50;23.50;;;;;32.51;33.99;99231.31;4972809;28;8984;-85
2023/06/23 09:03:36;;;;;;;;;27.50;25.50;;;;;32.41;33.92;99237.84;4988407;28;8848;-85
2023/06/23 09:06:05;;;;;;;;;26.00;23.25;;;;;32.52;33.36;99227.53;4972467;28;9607;-84
2023/06/23 09:08:35;;;;;;;;;23.25;23.25;;;;;32.57;33.91;99223.25;5025218;28;8976;-86
2023/06/23 09:11:04;;;;;;;;;24.50;23.50;;;;;32.59;33.50;99228.50;5030075;28;8856;-85
2023/06/23 09:13:36;;;;;;;;;26.00;25.00;;;;;32.59;33.65;99225.78;5031119;28;8860;-85
2023/06/23 09:16:10;;;;;;;;;24.75;22.75;;;;;32.65;33.63;99235.97;5028883;28;8958;-83
2023/06/23 09:18:41;;;;;;;;;27.50;27.50;;;;;32.55;33.83;99236.19;5030878;28;8852;-83
2023/06/23 09:21:09;;;;;;;;;26.75;25.75;;;;;32.66;34.13;99234.94;5020722;28;8892;-85
2023/06/23 09:23:39;;;;;;;;;28.75;28.50;;;;;32.72;33.87;99238.81;5018145;28;8871;-83
2023/06/23 09:26:08;;;;;;;;;23.25;21.00;;;;;32.70;34.35;99236.25;5037440;28;8852;-85
2023/06/23 09:28:39;;;;;;;;;24.75;23.50;;;;;32.57;34.70;99236.84;5033174;28;8931;-84
2023/06/23 09:31:10;;;;;;;;;28.75;27.50;;;;;32.84;34.12;99232.72;5032339;28;8963;-84
2023/06/23 09:34:00;;;;;;;;;24.75;24.25;;;;;33.00;33.72;99229.00;4954978;28;8852;-83
2023/06/23 09:36:34;;;;;;;;;27.50;25.75;;;;;33.10;32.88;99223.28;4970747;28;8871;-82
2023/06/23 09:39:04;;;;;;;;;25.75;24.75;;;;;33.14;32.33;99216.44;4982141;28;8979;-81
2023/06/23 09:41:34;;;;;;;;;17.25;15.75;;;;;33.22;32.49;99218.22;4981934;28;8914;-85
2023/06/23 09:44:19;;;;;;;;;29.25;27.50;;;;;33.18;32.74;99220.47;4978506;28;8923;-84
2023/06/23 09:47:00;;;;;;;;;25.25;24.75;;;;;33.36;33.18;99222.00;4973011;28;8881;-86
2023/06/23 09:49:38;;;;;;;;;27.25;27.25;;;;;33.13;32.81;99209.31;4954336;28;8883;-84
2023/06/23 09:52:12;;;;;;;;;26.75;25.50;;;;;33.15;32.79;99211.81;4969367;28;9013;-85
2023/06/23 09:54:42;;;;;;;;;25.25;25.25;;;;;33.26;32.79;99214.09;4969120;28;8847;-85
2023/06/23 09:57:16;;;;;;;;;29.25;26.75;;;;;33.28;32.56;99213.91;4953072;28;8855;-85
2023/06/23 09:59:49;;;;;;;;;26.00;26.00;;;;;33.38;32.67;99223.50;4984781;28;9774;-84
2023/06/23 10:02:25;;;;;;;;;25.75;23.00;;;;;33.45;32.57;99223.56;4988595;28;8886;-85
2023/06/23 10:05:00;;;;;;;;;23.50;23.25;;;;;33.42;32.53;99218.50;4988076;28;8983;-86
2023/06/23 10:07:30;;;;;;;;;24.75;24.75;;;;;33.28;33.75;99212.03;4988801;28;8868;-87
2023/06/23 10:10:04;;;;;;;;;26.25;25.25;;;;;33.42;33.28;99215.78;4936510;28;9603;-83
2023/06/23 10:12:49;;;;;;;;;26.00;26.00;;;;;33.49;32.46;99218.59;4968309;28;8973;-84
2023/06/23 10:15:20;;;;;;;;;26.00;26.00;;;;;33.47;32.98;99221.53;4968600;28;8854;-84
2023/06/23 10:17:51;;;;;;;;;26.00;26.00;;;;;33.44;34.27;99218.31;4968647;28;8929;-86
2023/06/23 10:20:20;;;;;;;;;24.50;23.25;;;;;33.46;33.96;99216.25;4953369;28;8973;-83
2023/06/23 10:22:52;;;;;;;;;25.00;25.00;;;;;33.61;33.53;99214.38;4969616;28;8862;-84
2023/06/23 10:25:25;;;;;;;;;25.75;25.75;;;;;33.72;33.23;99213.88;4968368;28;9668;-84
2023/06/23 10:27:57;;;;;;;;;27.50;27.50;;;;;33.66;33.18;99209.22;4967456;28;8863;-84
2023/06/23 10:30:29;;;;;;;;;25.25;25.25;;;;;33.69;33.23;99210.69;4967337;28;8977;-86
2023/06/23 10:33:03;;;;;;;;;24.50;24.50;;;;;33.74;33.17;99205.53;4967805;28;9574;-83
2023/06/23 10:35:34;;;;;;;;;25.25;25.25;;;;;33.70;32.84;99210.50;4967943;28;8863;-83
2023/06/23 10:38:05;;;;;;;;;25.00;25.00;;;;;33.83;33.03;99204.38;4984397;28;8863;-84
2023/06/23 10:40:40;;;;;;;;;29.00;27.25;;;;;33.97;32.88;99208.91;4959337;28;8993;-84
2023/06/23 10:43:12;;;;;;;;;25.25;24.25;;;;;34.02;32.37;99208.41;4967972;28;8875;-84
2023/06/23 10:45:41;;;;;;;;;27.25;26.25;;;;;34.02;31.46;99197.47;4967353;28;8955;-85
2023/06/23 10:48:14;;;;;;;;;24.50;23.75;;;;;34.13;32.10;99196.09;4982971;28;8957;-83
2023/06/23 10:50:45;;;;;;;;;27.50;26.50;;;;;34.16;32.21;99193.00;5028978;28;8887;-83
2023/06/23 10:53:19;;;;;;;;;24.50;23.75;;;;;34.38;32.19;99197.41;5027078;28;8860;-85
2023/06/23 10:55:48;;;;;;;;;27.75;24.75;;;;;34.35;31.90;99189.59;5028129;28;8946;-82
2023/06/23 10:58:50;;;;;;;;;26.50;26.00;;;;;34.47;31.58;99194.56;5023161;28;8975;-83
2023/06/23 11:01:19;;;;;;;;;25.00;24.75;;;;;34.42;32.92;99197.03;5008962;28;8838;-84
2023/06/23 11:03:53;;;;;;;;;22.75;22.75;;;;;34.67;31.60;99194.72;4990023;28;8858;-83
2023/06/23 11:06:36;;;;;;;;;24.75;24.50;;;;;34.83;31.67;99186.22;5040337;28;8842;-83
2023/06/23 11:09:26;;;;;;;;;29.50;29.00;;;;;34.82;31.24;99184.56;5008608;28;9061;-83
2023/06/23 11:11:59;;;;;;;;;29.00;28.00;;;;;34.83;31.44;99190.84;4992323;28;8854;-83
2023/06/23 11:14:28;;;;;;;;;27.00;24.50;;;;;34.99;31.96;99184.28;5012358;28;8862;-82
2023/06/23 11:16:59;;;;;;;;;28.00;26.25;;;;;35.07;29.88;99184.94;5010579;28;8889;-83
2023/06/23 11:19:29;;;;;;;;;26.75;24.00;;;;;35.26;29.26;99177.91;5043706;28;8869;-82
2023/06/23 11:22:09;;;;;;;;;26.25;26.00;;;;;35.40;30.47;99178.00;5011946;28;8862;-81
2023/06/23 11:24:52;;;;;;;;;27.25;27.25;;;;;35.62;29.96;99179.56;4994265;28;8970;-82
2023/06/23 11:27:21;;;;;;;;;25.00;24.00;;;;;35.70;29.78;99173.91;5021743;28;8948;-82
2023/06/23 11:30:15;;;;;;;;;19.25;18.00;;;;;35.81;29.18;99180.69;5021019;28;8877;-82
2023/06/23 11:32:44;;;;;;;;;24.50;22.00;;;;;35.78;29.20;99175.66;5013248;28;9687;-81
2023/06/23 11:35:16;;;;;;;;;25.25;24.50;;;;;35.74;29.90;99171.63;5050008;28;9005;-82
2023/06/23 11:37:45;;;;;;;;;26.50;26.00;;;;;36.03;29.40;99169.59;5020185;28;8850;-80
2023/06/23 11:40:14;;;;;;;;;27.00;25.75;;;;;36.19;28.45;99171.91;4995659;28;8870;-81
2023/06/23 11:42:46;;;;;;;;;22.75;21.75;;;;;36.37;27.96;99168.59;5011914;28;8901;-82
2023/06/23 11:45:15;;;;;;;;;26.00;24.00;;;;;36.48;28.36;99165.22;5011974;28;8976;-82
2023/06/23 11:47:44;;;;;;;;;23.25;23.25;;;;;36.56;27.31;99166.06;5009077;28;8854;-81
2023/06/23 11:50:14;;;;;;;;;19.00;17.25;;;;;36.75;26.93;99175.34;5009994;28;8874;-80